AAL1923 KJAC-KDFW
Flight info
| Callsign | AAL1923 |
|---|---|
| Flight time | 2h 2m |
| Altitude | 37000 |
| Route | ALPIN5 BPI KD66S RLG STAMY PUB DHT PNH MDANO VKTRY2 |
| Aircraft | A319/M-SDE3FGHIRWY/LB1 |
Departure
| Time | 2026-05-04 19:25 |
|---|---|
| Airport | Jackson Hole Airport (KJAC) |
Arrival
| Time | 2026-05-04 21:28 |
|---|---|
| Airport | Dallas Fort Worth International Airport (KDFW) |
| Time | Latitude | Longitude | Altitude | Speed | Heading |
|---|---|---|---|---|---|
| 2026-05-04 19:16 | 43.60379 | -110.73698 | 6451 ft | 0 kts | 109° |
| 2026-05-04 19:17 | 43.60386 | -110.73727 | 6419 ft | 3 kts | 109° |
| 2026-05-04 19:17 | 43.60392 | -110.73756 | 6419 ft | 4 kts | 82° |
| 2026-05-04 19:17 | 43.60381 | -110.73784 | 6418 ft | 4 kts | 30° |
| 2026-05-04 19:18 | 43.60356 | -110.73798 | 6419 ft | 3 kts | 20° |
| 2026-05-04 19:18 | 43.60337 | -110.73808 | 6417 ft | 0 kts | 19° |
| 2026-05-04 19:21 | 43.60339 | -110.73807 | 6417 ft | 1 kts | 19° |
| 2026-05-04 19:21 | 43.60363 | -110.73795 | 6418 ft | 7 kts | 19° |
| 2026-05-04 19:21 | 43.60417 | -110.73770 | 6419 ft | 11 kts | 19° |
| 2026-05-04 19:21 | 43.60499 | -110.73731 | 6421 ft | 13 kts | 20° |
| 2026-05-04 19:22 | 43.60588 | -110.73687 | 6421 ft | 14 kts | 19° |
| 2026-05-04 19:22 | 43.60675 | -110.73644 | 6423 ft | 14 kts | 20° |
| 2026-05-04 19:22 | 43.60779 | -110.73593 | 6426 ft | 16 kts | 19° |
| 2026-05-04 19:22 | 43.60889 | -110.73540 | 6425 ft | 17 kts | 19° |
| 2026-05-04 19:23 | 43.60999 | -110.73485 | 6424 ft | 17 kts | 20° |
| 2026-05-04 19:23 | 43.61122 | -110.73425 | 6421 ft | 20 kts | 19° |
| 2026-05-04 19:23 | 43.61249 | -110.73365 | 6423 ft | 19 kts | 21° |
| 2026-05-04 19:23 | 43.61372 | -110.73300 | 6425 ft | 19 kts | 20° |
| 2026-05-04 19:24 | 43.61479 | -110.73254 | 6426 ft | 14 kts | 1° |
| 2026-05-04 19:24 | 43.61528 | -110.73369 | 6422 ft | 16 kts | 255° |
| 2026-05-04 19:24 | 43.61489 | -110.73404 | 6418 ft | 4 kts | 200° |
| 2026-05-04 19:24 | 43.61210 | -110.73541 | 6422 ft | 82 kts | 199° |
| 2026-05-04 19:25 | 43.60458 | -110.73906 | 6418 ft | 146 kts | 199° |
| 2026-05-04 19:25 | 43.59400 | -110.74461 | 6839 ft | 164 kts | 204° |
| 2026-05-04 19:25 | 43.58358 | -110.75002 | 7627 ft | 158 kts | 205° |
| 2026-05-04 19:25 | 43.57344 | -110.75599 | 8277 ft | 161 kts | 207° |
| 2026-05-04 19:26 | 43.56263 | -110.76306 | 8510 ft | 182 kts | 207° |
| 2026-05-04 19:26 | 43.55052 | -110.77112 | 8772 ft | 204 kts | 208° |
| 2026-05-04 19:26 | 43.53702 | -110.78015 | 8992 ft | 227 kts | 210° |
| 2026-05-04 19:26 | 43.52204 | -110.79022 | 9267 ft | 251 kts | 208° |
| 2026-05-04 19:27 | 43.50560 | -110.80120 | 9600 ft | 274 kts | 208° |
| 2026-05-04 19:27 | 43.48780 | -110.81295 | 10074 ft | 292 kts | 209° |
| 2026-05-04 19:27 | 43.46868 | -110.82549 | 10416 ft | 316 kts | 207° |
| 2026-05-04 19:27 | 43.44812 | -110.83893 | 10816 ft | 336 kts | 208° |
| 2026-05-04 19:28 | 43.42674 | -110.85283 | 11541 ft | 343 kts | 208° |
| 2026-05-04 19:28 | 43.40503 | -110.86690 | 12381 ft | 347 kts | 207° |
| 2026-05-04 19:28 | 43.38303 | -110.88118 | 13211 ft | 351 kts | 208° |
| 2026-05-04 19:28 | 43.36078 | -110.89564 | 14020 ft | 355 kts | 208° |
| 2026-05-04 19:29 | 43.33835 | -110.91024 | 14734 ft | 359 kts | 208° |
| 2026-05-04 19:29 | 43.31572 | -110.92496 | 15446 ft | 362 kts | 208° |
| 2026-05-04 19:29 | 43.29280 | -110.93988 | 16135 ft | 366 kts | 208° |
| 2026-05-04 19:29 | 43.26924 | -110.95366 | 16821 ft | 372 kts | 199° |
| 2026-05-04 19:30 | 43.24345 | -110.95973 | 17503 ft | 382 kts | 184° |
| 2026-05-04 19:30 | 43.21685 | -110.95606 | 18217 ft | 388 kts | 167° |
| 2026-05-04 19:30 | 43.19180 | -110.94278 | 18768 ft | 396 kts | 152° |
| 2026-05-04 19:30 | 43.16972 | -110.91987 | 19368 ft | 403 kts | 136° |
| 2026-05-04 19:31 | 43.15011 | -110.89235 | 20020 ft | 404 kts | 134° |
| 2026-05-04 19:31 | 43.13044 | -110.86476 | 20647 ft | 407 kts | 135° |
| 2026-05-04 19:31 | 43.11041 | -110.83683 | 21232 ft | 412 kts | 135° |
| 2026-05-04 19:31 | 43.09006 | -110.80856 | 21682 ft | 420 kts | 135° |
| 2026-05-04 19:32 | 43.06941 | -110.77996 | 22314 ft | 423 kts | 135° |
| 2026-05-04 19:32 | 43.04863 | -110.75126 | 22884 ft | 426 kts | 135° |
| 2026-05-04 19:32 | 43.02769 | -110.72238 | 23482 ft | 428 kts | 135° |
| 2026-05-04 19:32 | 43.00657 | -110.69324 | 23895 ft | 433 kts | 135° |
| 2026-05-04 19:33 | 42.98527 | -110.66385 | 24296 ft | 438 kts | 135° |
| 2026-05-04 19:33 | 42.96369 | -110.63411 | 24744 ft | 440 kts | 135° |
| 2026-05-04 19:33 | 42.94206 | -110.60428 | 25210 ft | 442 kts | 135° |
| 2026-05-04 19:33 | 42.92073 | -110.57487 | 25721 ft | 443 kts | 135° |
| 2026-05-04 19:34 | 42.89888 | -110.54481 | 26106 ft | 447 kts | 135° |
| 2026-05-04 19:34 | 42.87688 | -110.51462 | 26497 ft | 451 kts | 135° |
| 2026-05-04 19:34 | 42.85467 | -110.48420 | 26929 ft | 454 kts | 135° |
| 2026-05-04 19:34 | 42.83234 | -110.45362 | 27377 ft | 455 kts | 135° |
| 2026-05-04 19:35 | 42.80998 | -110.42298 | 27872 ft | 457 kts | 135° |
| 2026-05-04 19:35 | 42.78749 | -110.39221 | 28283 ft | 460 kts | 135° |
| 2026-05-04 19:35 | 42.76483 | -110.36125 | 28672 ft | 463 kts | 135° |
| 2026-05-04 19:35 | 42.74205 | -110.33016 | 29116 ft | 464 kts | 135° |
| 2026-05-04 19:36 | 42.71916 | -110.29897 | 29538 ft | 466 kts | 135° |
| 2026-05-04 19:36 | 42.69623 | -110.26775 | 29924 ft | 469 kts | 135° |
| 2026-05-04 19:36 | 42.67311 | -110.23628 | 30251 ft | 471 kts | 135° |
| 2026-05-04 19:36 | 42.64980 | -110.20460 | 30564 ft | 474 kts | 135° |
| 2026-05-04 19:37 | 42.62640 | -110.17290 | 30884 ft | 476 kts | 135° |
| 2026-05-04 19:37 | 42.60291 | -110.14117 | 31224 ft | 476 kts | 135° |
| 2026-05-04 19:37 | 42.57951 | -110.10949 | 31732 ft | 473 kts | 135° |
| 2026-05-04 19:37 | 42.55633 | -110.07791 | 32179 ft | 472 kts | 135° |
| 2026-05-04 19:38 | 42.53334 | -110.04622 | 32605 ft | 471 kts | 134° |
| 2026-05-04 19:38 | 42.51043 | -110.01436 | 33010 ft | 471 kts | 134° |
| 2026-05-04 19:38 | 42.48760 | -109.98256 | 33408 ft | 470 kts | 134° |
| 2026-05-04 19:38 | 42.46506 | -109.95123 | 33805 ft | 470 kts | 134° |
| 2026-05-04 19:39 | 42.44227 | -109.91965 | 34173 ft | 468 kts | 135° |
| 2026-05-04 19:39 | 42.41950 | -109.88820 | 34542 ft | 467 kts | 136° |
| 2026-05-04 19:39 | 42.39670 | -109.85681 | 34845 ft | 467 kts | 136° |
| 2026-05-04 19:39 | 42.37391 | -109.82548 | 35127 ft | 468 kts | 136° |
| 2026-05-04 19:40 | 42.35102 | -109.79413 | 35409 ft | 469 kts | 137° |
| 2026-05-04 19:40 | 42.32804 | -109.76272 | 35639 ft | 471 kts | 137° |
| 2026-05-04 19:40 | 42.30493 | -109.73121 | 35912 ft | 472 kts | 137° |
| 2026-05-04 19:40 | 42.28178 | -109.69965 | 36186 ft | 473 kts | 138° |
| 2026-05-04 19:41 | 42.25863 | -109.66810 | 36485 ft | 473 kts | 138° |
| 2026-05-04 19:41 | 42.23543 | -109.63652 | 36708 ft | 475 kts | 139° |
| 2026-05-04 19:41 | 42.21210 | -109.60475 | 36765 ft | 476 kts | 139° |
| 2026-05-04 19:42 | 42.16556 | -109.54133 | 36760 ft | 476 kts | 139° |
| 2026-05-04 19:42 | 42.11888 | -109.47798 | 36759 ft | 477 kts | 139° |
| 2026-05-04 19:43 | 42.07195 | -109.41433 | 36760 ft | 479 kts | 139° |
| 2026-05-04 19:43 | 42.02497 | -109.35074 | 36761 ft | 479 kts | 139° |
| 2026-05-04 19:44 | 41.97819 | -109.28774 | 36733 ft | 479 kts | 140° |
| 2026-05-04 19:44 | 41.93101 | -109.22439 | 36736 ft | 479 kts | 140° |
| 2026-05-04 19:45 | 41.88375 | -109.16110 | 36782 ft | 480 kts | 140° |
| 2026-05-04 19:45 | 41.83637 | -109.09761 | 36835 ft | 481 kts | 140° |
| 2026-05-04 19:46 | 41.78897 | -109.03421 | 36848 ft | 482 kts | 141° |
| 2026-05-04 19:46 | 41.74143 | -108.97074 | 36871 ft | 483 kts | 141° |
| 2026-05-04 19:47 | 41.69381 | -108.90729 | 36881 ft | 483 kts | 141° |
| 2026-05-04 19:47 | 41.64601 | -108.84392 | 36847 ft | 484 kts | 142° |
| 2026-05-04 19:48 | 41.59800 | -108.78044 | 36832 ft | 486 kts | 142° |
| 2026-05-04 19:48 | 41.54982 | -108.71686 | 36754 ft | 488 kts | 142° |
| 2026-05-04 19:49 | 41.50147 | -108.65309 | 36750 ft | 489 kts | 142° |
| 2026-05-04 19:49 | 41.45332 | -108.58964 | 36747 ft | 490 kts | 142° |
| 2026-05-04 19:50 | 41.40468 | -108.52580 | 36749 ft | 492 kts | 142° |
| 2026-05-04 19:50 | 41.35584 | -108.46184 | 36755 ft | 493 kts | 142° |
| 2026-05-04 19:51 | 41.30690 | -108.39780 | 36770 ft | 493 kts | 142° |
| 2026-05-04 19:51 | 41.25780 | -108.33372 | 36782 ft | 494 kts | 142° |
| 2026-05-04 19:52 | 41.21700 | -108.28067 | 36794 ft | 494 kts | 142° |
| 2026-05-04 19:52 | 41.16784 | -108.21691 | 36793 ft | 494 kts | 142° |
| 2026-05-04 19:53 | 41.11864 | -108.15314 | 36780 ft | 494 kts | 143° |
| 2026-05-04 19:53 | 41.06934 | -108.08942 | 36794 ft | 495 kts | 143° |
| 2026-05-04 19:54 | 41.01997 | -108.02584 | 36798 ft | 496 kts | 143° |
| 2026-05-04 19:54 | 40.97326 | -107.95756 | 36783 ft | 503 kts | 137° |
| 2026-05-04 19:55 | 40.92868 | -107.88600 | 36801 ft | 504 kts | 137° |
| 2026-05-04 19:55 | 40.88428 | -107.81498 | 36809 ft | 504 kts | 137° |
| 2026-05-04 19:56 | 40.83942 | -107.74371 | 36879 ft | 504 kts | 137° |
| 2026-05-04 19:56 | 40.79452 | -107.67254 | 36850 ft | 505 kts | 137° |
| 2026-05-04 19:57 | 40.74947 | -107.60129 | 36864 ft | 506 kts | 137° |
| 2026-05-04 19:57 | 40.70428 | -107.52994 | 36892 ft | 506 kts | 137° |
| 2026-05-04 19:58 | 40.65918 | -107.45866 | 36914 ft | 507 kts | 137° |
| 2026-05-04 19:58 | 40.61385 | -107.38744 | 36917 ft | 507 kts | 137° |
| 2026-05-04 19:59 | 40.56845 | -107.31638 | 36959 ft | 507 kts | 137° |
| 2026-05-04 19:59 | 40.52295 | -107.24536 | 36974 ft | 508 kts | 137° |
| 2026-05-04 20:00 | 40.47776 | -107.17465 | 36935 ft | 508 kts | 137° |
| 2026-05-04 20:00 | 40.43233 | -107.10373 | 36976 ft | 507 kts | 137° |
| 2026-05-04 20:01 | 40.38691 | -107.03311 | 36960 ft | 506 kts | 137° |
| 2026-05-04 20:01 | 40.34139 | -106.96267 | 36904 ft | 507 kts | 137° |
| 2026-05-04 20:02 | 40.29576 | -106.89218 | 36840 ft | 507 kts | 137° |
| 2026-05-04 20:02 | 40.25014 | -106.82173 | 36876 ft | 506 kts | 137° |
| 2026-05-04 20:03 | 40.20456 | -106.75151 | 36854 ft | 506 kts | 138° |
| 2026-05-04 20:03 | 40.15899 | -106.68152 | 36845 ft | 506 kts | 138° |
| 2026-05-04 20:04 | 40.11331 | -106.61151 | 36802 ft | 506 kts | 138° |
| 2026-05-04 20:04 | 40.06763 | -106.54161 | 36812 ft | 506 kts | 138° |
| 2026-05-04 20:05 | 40.02181 | -106.47192 | 36811 ft | 506 kts | 138° |
| 2026-05-04 20:05 | 39.97577 | -106.40221 | 36825 ft | 506 kts | 139° |
| 2026-05-04 20:06 | 39.92888 | -106.33350 | 36861 ft | 510 kts | 140° |
| 2026-05-04 20:06 | 39.88123 | -106.26472 | 36869 ft | 512 kts | 140° |
| 2026-05-04 20:07 | 39.83410 | -106.19612 | 36869 ft | 512 kts | 140° |
| 2026-05-04 20:07 | 39.78684 | -106.12706 | 36862 ft | 511 kts | 140° |
| 2026-05-04 20:08 | 39.73940 | -106.05793 | 36830 ft | 513 kts | 141° |
| 2026-05-04 20:08 | 39.69176 | -105.98882 | 36828 ft | 514 kts | 141° |
| 2026-05-04 20:09 | 39.64386 | -105.91966 | 36830 ft | 516 kts | 141° |
| 2026-05-04 20:09 | 39.59577 | -105.85028 | 36829 ft | 517 kts | 141° |
| 2026-05-04 20:10 | 39.54774 | -105.78097 | 36805 ft | 517 kts | 141° |
| 2026-05-04 20:10 | 39.49989 | -105.71207 | 36816 ft | 518 kts | 141° |
| 2026-05-04 20:11 | 39.45160 | -105.64281 | 36816 ft | 518 kts | 141° |
| 2026-05-04 20:11 | 39.40324 | -105.57374 | 36765 ft | 518 kts | 142° |
| 2026-05-04 20:12 | 39.35437 | -105.50425 | 36796 ft | 527 kts | 142° |
| 2026-05-04 20:12 | 39.30508 | -105.43402 | 36769 ft | 527 kts | 142° |
| 2026-05-04 20:13 | 39.25599 | -105.36412 | 36763 ft | 526 kts | 142° |
| 2026-05-04 20:13 | 39.20664 | -105.29418 | 36760 ft | 530 kts | 143° |
| 2026-05-04 20:14 | 39.15675 | -105.22355 | 36740 ft | 533 kts | 143° |
| 2026-05-04 20:14 | 39.10678 | -105.15296 | 36727 ft | 533 kts | 143° |
| 2026-05-04 20:15 | 39.05654 | -105.08267 | 36722 ft | 529 kts | 147° |
| 2026-05-04 20:15 | 39.02927 | -105.05177 | 36701 ft | 515 kts | 156° |
| 2026-05-04 20:15 | 39.00009 | -105.02592 | 36717 ft | 508 kts | 160° |
| 2026-05-04 20:16 | 38.94109 | -104.97589 | 36870 ft | 508 kts | 160° |
| 2026-05-04 20:16 | 38.88207 | -104.92562 | 36884 ft | 509 kts | 160° |
| 2026-05-04 20:17 | 38.82308 | -104.87520 | 36827 ft | 509 kts | 160° |
| 2026-05-04 20:17 | 38.76444 | -104.82526 | 36844 ft | 509 kts | 160° |
| 2026-05-04 20:18 | 38.70536 | -104.77523 | 36864 ft | 509 kts | 160° |
| 2026-05-04 20:18 | 38.64618 | -104.72516 | 36738 ft | 509 kts | 160° |
| 2026-05-04 20:19 | 38.58717 | -104.67528 | 36731 ft | 508 kts | 160° |
| 2026-05-04 20:19 | 38.52817 | -104.62560 | 36729 ft | 507 kts | 160° |
| 2026-05-04 20:20 | 38.46907 | -104.57591 | 36760 ft | 507 kts | 160° |
| 2026-05-04 20:20 | 38.41016 | -104.52648 | 36754 ft | 507 kts | 161° |
| 2026-05-04 20:21 | 38.35115 | -104.47708 | 36781 ft | 507 kts | 161° |
| 2026-05-04 20:21 | 38.26281 | -104.40276 | 36800 ft | 509 kts | 160° |
| 2026-05-04 20:22 | 38.20452 | -104.35109 | 36746 ft | 512 kts | 158° |
| 2026-05-04 20:22 | 38.14645 | -104.29880 | 36721 ft | 512 kts | 158° |
| 2026-05-04 20:23 | 38.08855 | -104.24731 | 36684 ft | 511 kts | 159° |
| 2026-05-04 20:23 | 38.03011 | -104.19602 | 36672 ft | 511 kts | 159° |
| 2026-05-04 20:24 | 37.97154 | -104.14486 | 36627 ft | 512 kts | 159° |
| 2026-05-04 20:24 | 37.91287 | -104.09343 | 36632 ft | 513 kts | 159° |
| 2026-05-04 20:25 | 37.85418 | -104.04193 | 36631 ft | 514 kts | 159° |
| 2026-05-04 20:25 | 37.79539 | -103.99052 | 36620 ft | 514 kts | 159° |
| 2026-05-04 20:26 | 37.73648 | -103.93925 | 36633 ft | 514 kts | 159° |
| 2026-05-04 20:26 | 37.67745 | -103.88792 | 36631 ft | 515 kts | 159° |
| 2026-05-04 20:27 | 37.61839 | -103.83669 | 36647 ft | 515 kts | 159° |
| 2026-05-04 20:27 | 37.55921 | -103.78542 | 36649 ft | 517 kts | 159° |
| 2026-05-04 20:28 | 37.49988 | -103.73404 | 36650 ft | 517 kts | 159° |
| 2026-05-04 20:28 | 37.44051 | -103.68278 | 36664 ft | 518 kts | 158° |
| 2026-05-04 20:29 | 37.38133 | -103.63173 | 36635 ft | 518 kts | 158° |
| 2026-05-04 20:29 | 37.32187 | -103.58071 | 36657 ft | 518 kts | 158° |
| 2026-05-04 20:30 | 37.26225 | -103.52960 | 36677 ft | 519 kts | 158° |
| 2026-05-04 20:30 | 37.20260 | -103.47849 | 36687 ft | 520 kts | 158° |
| 2026-05-04 20:31 | 37.14270 | -103.42737 | 36680 ft | 522 kts | 158° |
| 2026-05-04 20:31 | 37.08263 | -103.37614 | 36688 ft | 522 kts | 158° |
| 2026-05-04 20:32 | 37.02250 | -103.32487 | 36695 ft | 522 kts | 158° |
| 2026-05-04 20:32 | 36.96279 | -103.27405 | 36669 ft | 522 kts | 158° |
| 2026-05-04 20:33 | 36.90262 | -103.22306 | 36682 ft | 522 kts | 158° |
| 2026-05-04 20:33 | 36.84233 | -103.17211 | 36684 ft | 523 kts | 158° |
| 2026-05-04 20:34 | 36.78208 | -103.12117 | 36707 ft | 523 kts | 158° |
| 2026-05-04 20:34 | 36.72175 | -103.07025 | 36688 ft | 524 kts | 158° |
| 2026-05-04 20:35 | 36.66123 | -103.01933 | 36687 ft | 525 kts | 158° |
| 2026-05-04 20:35 | 36.60068 | -102.96846 | 36700 ft | 525 kts | 158° |
| 2026-05-04 20:36 | 36.54006 | -102.91769 | 36703 ft | 525 kts | 158° |
| 2026-05-04 20:36 | 36.47981 | -102.86740 | 36674 ft | 525 kts | 158° |
| 2026-05-04 20:37 | 36.41924 | -102.81675 | 36696 ft | 525 kts | 158° |
| 2026-05-04 20:37 | 36.35866 | -102.76617 | 36709 ft | 525 kts | 158° |
| 2026-05-04 20:38 | 36.29799 | -102.71575 | 36693 ft | 525 kts | 158° |
| 2026-05-04 20:38 | 36.23721 | -102.66536 | 36754 ft | 526 kts | 158° |
| 2026-05-04 20:39 | 36.18664 | -102.62350 | 36784 ft | 526 kts | 158° |
| 2026-05-04 20:39 | 36.12582 | -102.57309 | 36834 ft | 526 kts | 158° |
| 2026-05-04 20:40 | 36.06615 | -102.51942 | 36817 ft | 536 kts | 151° |
| 2026-05-04 20:40 | 36.00828 | -102.46133 | 36835 ft | 536 kts | 151° |
| 2026-05-04 20:41 | 35.95035 | -102.40350 | 36834 ft | 536 kts | 151° |
| 2026-05-04 20:41 | 35.89227 | -102.34580 | 36789 ft | 536 kts | 151° |
| 2026-05-04 20:42 | 35.83410 | -102.28807 | 36664 ft | 536 kts | 151° |
| 2026-05-04 20:42 | 35.77596 | -102.23045 | 36684 ft | 537 kts | 151° |
| 2026-05-04 20:43 | 35.71777 | -102.17282 | 36768 ft | 537 kts | 151° |
| 2026-05-04 20:43 | 35.65956 | -102.11519 | 36758 ft | 536 kts | 151° |
| 2026-05-04 20:44 | 35.60135 | -102.05780 | 36719 ft | 536 kts | 151° |
| 2026-05-04 20:44 | 35.54313 | -102.00053 | 36704 ft | 537 kts | 151° |
| 2026-05-04 20:45 | 35.48475 | -101.94326 | 36700 ft | 537 kts | 151° |
| 2026-05-04 20:45 | 35.42675 | -101.88635 | 36752 ft | 537 kts | 151° |
| 2026-05-04 20:46 | 35.36834 | -101.82910 | 36802 ft | 537 kts | 151° |
| 2026-05-04 20:46 | 35.30994 | -101.77191 | 36846 ft | 537 kts | 151° |
| 2026-05-04 20:47 | 35.25295 | -101.71209 | 36848 ft | 549 kts | 141° |
| 2026-05-04 20:47 | 35.20830 | -101.63479 | 36852 ft | 565 kts | 121° |
| 2026-05-04 20:48 | 35.17290 | -101.54877 | 36784 ft | 566 kts | 121° |
| 2026-05-04 20:48 | 35.15506 | -101.50590 | 36659 ft | 566 kts | 121° |
| 2026-05-04 20:48 | 35.13711 | -101.46298 | 36662 ft | 566 kts | 121° |
| 2026-05-04 20:49 | 35.10122 | -101.37728 | 36667 ft | 567 kts | 121° |
| 2026-05-04 20:49 | 35.06531 | -101.29156 | 36678 ft | 567 kts | 120° |
| 2026-05-04 20:50 | 35.02934 | -101.20580 | 36667 ft | 567 kts | 121° |
| 2026-05-04 20:50 | 34.99329 | -101.12010 | 36668 ft | 568 kts | 121° |
| 2026-05-04 20:51 | 34.95739 | -101.03498 | 36645 ft | 568 kts | 121° |
| 2026-05-04 20:51 | 34.92116 | -100.94946 | 36655 ft | 568 kts | 121° |
| 2026-05-04 20:52 | 34.88486 | -100.86398 | 36658 ft | 568 kts | 121° |
| 2026-05-04 20:52 | 34.84848 | -100.77845 | 36668 ft | 568 kts | 121° |
| 2026-05-04 20:53 | 34.81205 | -100.69297 | 36665 ft | 568 kts | 121° |
| 2026-05-04 20:53 | 34.77559 | -100.60760 | 36626 ft | 568 kts | 121° |
| 2026-05-04 20:54 | 34.73914 | -100.52238 | 36664 ft | 568 kts | 121° |
| 2026-05-04 20:54 | 34.70254 | -100.43718 | 36662 ft | 568 kts | 121° |
| 2026-05-04 20:55 | 34.66584 | -100.35218 | 36664 ft | 568 kts | 121° |
| 2026-05-04 20:55 | 34.62932 | -100.26768 | 36662 ft | 568 kts | 121° |
| 2026-05-04 20:56 | 34.59257 | -100.18273 | 36680 ft | 568 kts | 121° |
| 2026-05-04 20:56 | 34.55585 | -100.09785 | 36627 ft | 568 kts | 121° |
| 2026-05-04 20:57 | 34.51899 | -100.01304 | 36641 ft | 568 kts | 121° |
| 2026-05-04 20:57 | 34.48209 | -99.92845 | 36641 ft | 568 kts | 121° |
| 2026-05-04 20:58 | 34.44507 | -99.84387 | 36645 ft | 568 kts | 121° |
| 2026-05-04 20:58 | 34.40800 | -99.75926 | 36656 ft | 569 kts | 121° |
| 2026-05-04 20:59 | 34.37082 | -99.67465 | 36647 ft | 569 kts | 121° |
| 2026-05-04 20:59 | 34.33360 | -99.59010 | 36637 ft | 569 kts | 121° |
| 2026-05-04 21:00 | 34.29550 | -99.50628 | 36653 ft | 568 kts | 123° |
| 2026-05-04 21:00 | 34.25573 | -99.42394 | 36667 ft | 567 kts | 123° |
| 2026-05-04 21:01 | 34.21569 | -99.34163 | 36677 ft | 568 kts | 123° |
| 2026-05-04 21:01 | 34.17608 | -99.25908 | 36692 ft | 568 kts | 123° |
| 2026-05-04 21:02 | 34.13674 | -99.17634 | 36686 ft | 568 kts | 123° |
| 2026-05-04 21:02 | 34.09725 | -99.09385 | 36641 ft | 567 kts | 123° |
| 2026-05-04 21:03 | 34.07742 | -99.05261 | 36396 ft | 567 kts | 122° |
| 2026-05-04 21:03 | 34.05765 | -99.01149 | 36144 ft | 567 kts | 123° |
| 2026-05-04 21:03 | 34.03785 | -98.97045 | 35692 ft | 567 kts | 123° |
| 2026-05-04 21:03 | 34.01798 | -98.92938 | 34367 ft | 583 kts | 123° |
| 2026-05-04 21:04 | 33.99711 | -98.88637 | 33511 ft | 587 kts | 123° |
| 2026-05-04 21:04 | 33.97685 | -98.84456 | 32723 ft | 585 kts | 122° |
| 2026-05-04 21:04 | 33.95634 | -98.80218 | 31875 ft | 585 kts | 122° |
| 2026-05-04 21:04 | 33.93598 | -98.75997 | 31199 ft | 580 kts | 122° |
| 2026-05-04 21:05 | 33.91576 | -98.71806 | 30501 ft | 576 kts | 122° |
| 2026-05-04 21:05 | 33.89558 | -98.67643 | 29698 ft | 574 kts | 123° |
| 2026-05-04 21:05 | 33.87549 | -98.63522 | 29164 ft | 564 kts | 123° |
| 2026-05-04 21:05 | 33.85579 | -98.59507 | 28741 ft | 552 kts | 123° |
| 2026-05-04 21:06 | 33.83629 | -98.55562 | 28179 ft | 543 kts | 123° |
| 2026-05-04 21:06 | 33.81705 | -98.51689 | 27608 ft | 536 kts | 123° |
| 2026-05-04 21:06 | 33.79811 | -98.47858 | 27041 ft | 529 kts | 123° |
| 2026-05-04 21:06 | 33.77954 | -98.44071 | 26491 ft | 522 kts | 122° |
| 2026-05-04 21:07 | 33.76138 | -98.40347 | 25931 ft | 515 kts | 122° |
| 2026-05-04 21:07 | 33.74337 | -98.36647 | 25386 ft | 507 kts | 122° |
| 2026-05-04 21:07 | 33.72575 | -98.33020 | 24593 ft | 496 kts | 122° |
| 2026-05-04 21:07 | 33.70854 | -98.29486 | 23872 ft | 485 kts | 122° |
| 2026-05-04 21:08 | 33.69162 | -98.26029 | 23082 ft | 475 kts | 122° |
| 2026-05-04 21:08 | 33.67502 | -98.22656 | 22168 ft | 467 kts | 122° |
| 2026-05-04 21:08 | 33.65872 | -98.19354 | 21284 ft | 462 kts | 122° |
| 2026-05-04 21:08 | 33.64224 | -98.16014 | 20465 ft | 456 kts | 122° |
| 2026-05-04 21:09 | 33.62619 | -98.12763 | 19739 ft | 449 kts | 122° |
| 2026-05-04 21:09 | 33.61055 | -98.09603 | 19007 ft | 443 kts | 122° |
| 2026-05-04 21:09 | 33.59487 | -98.06449 | 18273 ft | 437 kts | 122° |
| 2026-05-04 21:09 | 33.57938 | -98.03341 | 17488 ft | 431 kts | 122° |
| 2026-05-04 21:10 | 33.56413 | -98.00288 | 16690 ft | 424 kts | 123° |
| 2026-05-04 21:10 | 33.54908 | -97.97271 | 15923 ft | 417 kts | 123° |
| 2026-05-04 21:10 | 33.53433 | -97.94314 | 15298 ft | 408 kts | 123° |
| 2026-05-04 21:10 | 33.52013 | -97.91458 | 15013 ft | 390 kts | 123° |
| 2026-05-04 21:11 | 33.50641 | -97.88699 | 14536 ft | 380 kts | 123° |
| 2026-05-04 21:11 | 33.49300 | -97.86004 | 14090 ft | 373 kts | 123° |
| 2026-05-04 21:11 | 33.47977 | -97.83345 | 13650 ft | 370 kts | 123° |
| 2026-05-04 21:11 | 33.46664 | -97.80712 | 13143 ft | 367 kts | 123° |
| 2026-05-04 21:12 | 33.45359 | -97.78103 | 12672 ft | 363 kts | 123° |
| 2026-05-04 21:12 | 33.44065 | -97.75522 | 12207 ft | 359 kts | 123° |
| 2026-05-04 21:12 | 33.42791 | -97.72969 | 11751 ft | 355 kts | 123° |
| 2026-05-04 21:12 | 33.41527 | -97.70445 | 11291 ft | 351 kts | 123° |
| 2026-05-04 21:13 | 33.40280 | -97.67961 | 10931 ft | 341 kts | 123° |
| 2026-05-04 21:13 | 33.39087 | -97.65580 | 10613 ft | 329 kts | 124° |
| 2026-05-04 21:13 | 33.37858 | -97.63317 | 10375 ft | 322 kts | 130° |
| 2026-05-04 21:13 | 33.36526 | -97.61169 | 10141 ft | 319 kts | 130° |
| 2026-05-04 21:14 | 33.35214 | -97.59039 | 9911 ft | 317 kts | 130° |
| 2026-05-04 21:14 | 33.33914 | -97.56918 | 9597 ft | 316 kts | 130° |
| 2026-05-04 21:14 | 33.32619 | -97.54802 | 9199 ft | 314 kts | 130° |
| 2026-05-04 21:14 | 33.31329 | -97.52702 | 8814 ft | 313 kts | 131° |
| 2026-05-04 21:15 | 33.30041 | -97.50613 | 8427 ft | 312 kts | 131° |
| 2026-05-04 21:15 | 33.28756 | -97.48531 | 8090 ft | 309 kts | 130° |
| 2026-05-04 21:15 | 33.27660 | -97.46315 | 7705 ft | 313 kts | 115° |
| 2026-05-04 21:15 | 33.27100 | -97.43819 | 7385 ft | 313 kts | 100° |
| 2026-05-04 21:16 | 33.26941 | -97.41246 | 6986 ft | 313 kts | 96° |
| 2026-05-04 21:16 | 33.26811 | -97.38655 | 6516 ft | 310 kts | 95° |
| 2026-05-04 21:16 | 33.26681 | -97.36105 | 6117 ft | 306 kts | 96° |
| 2026-05-04 21:16 | 33.26548 | -97.33581 | 5730 ft | 303 kts | 97° |
| 2026-05-04 21:17 | 33.26416 | -97.31088 | 5355 ft | 301 kts | 97° |
| 2026-05-04 21:17 | 33.26284 | -97.28638 | 5082 ft | 292 kts | 96° |
| 2026-05-04 21:17 | 33.26159 | -97.26245 | 4872 ft | 278 kts | 97° |
| 2026-05-04 21:17 | 33.26042 | -97.23979 | 4947 ft | 279 kts | 97° |
| 2026-05-04 21:18 | 33.25937 | -97.21656 | 4842 ft | 280 kts | 96° |
| 2026-05-04 21:18 | 33.25850 | -97.19334 | 4737 ft | 279 kts | 96° |
| 2026-05-04 21:18 | 33.25769 | -97.17028 | 4631 ft | 277 kts | 95° |
| 2026-05-04 21:18 | 33.25686 | -97.14728 | 4531 ft | 276 kts | 96° |
| 2026-05-04 21:19 | 33.25565 | -97.12454 | 4425 ft | 269 kts | 104° |
| 2026-05-04 21:19 | 33.24954 | -97.10449 | 4303 ft | 249 kts | 128° |
| 2026-05-04 21:19 | 33.23857 | -97.08964 | 4178 ft | 230 kts | 148° |
| 2026-05-04 21:19 | 33.22615 | -97.07827 | 4056 ft | 222 kts | 149° |
| 2026-05-04 21:20 | 33.21363 | -97.06811 | 3934 ft | 215 kts | 158° |
| 2026-05-04 21:20 | 33.20032 | -97.06070 | 3952 ft | 210 kts | 167° |
| 2026-05-04 21:20 | 33.18649 | -97.05581 | 3885 ft | 203 kts | 173° |
| 2026-05-04 21:20 | 33.17286 | -97.05391 | 3761 ft | 193 kts | 180° |
| 2026-05-04 21:21 | 33.15961 | -97.05352 | 3644 ft | 192 kts | 183° |
| 2026-05-04 21:21 | 33.14630 | -97.05349 | 3524 ft | 188 kts | 183° |
| 2026-05-04 21:21 | 33.13369 | -97.05352 | 3386 ft | 175 kts | 181° |
| 2026-05-04 21:21 | 33.12185 | -97.05357 | 3267 ft | 166 kts | 182° |
| 2026-05-04 21:22 | 33.11040 | -97.05364 | 3148 ft | 161 kts | 182° |
| 2026-05-04 21:22 | 33.09952 | -97.05369 | 3027 ft | 152 kts | 181° |
| 2026-05-04 21:22 | 33.08922 | -97.05375 | 2923 ft | 143 kts | 182° |
| 2026-05-04 21:22 | 33.07973 | -97.05379 | 2936 ft | 132 kts | 182° |
| 2026-05-04 21:23 | 33.07073 | -97.05384 | 2955 ft | 127 kts | 182° |
| 2026-05-04 21:23 | 33.06143 | -97.05390 | 2965 ft | 139 kts | 181° |
| 2026-05-04 21:23 | 33.05155 | -97.05395 | 2971 ft | 143 kts | 181° |
| 2026-05-04 21:23 | 33.04486 | -97.05398 | 2968 ft | 145 kts | 181° |
| 2026-05-04 21:24 | 33.03476 | -97.05403 | 2876 ft | 144 kts | 182° |
| 2026-05-04 21:24 | 33.02490 | -97.05408 | 2724 ft | 140 kts | 182° |
| 2026-05-04 21:24 | 33.01532 | -97.05413 | 2562 ft | 136 kts | 181° |
| 2026-05-04 21:24 | 33.00591 | -97.05418 | 2392 ft | 133 kts | 181° |
| 2026-05-04 21:25 | 32.99677 | -97.05423 | 2222 ft | 131 kts | 181° |
| 2026-05-04 21:25 | 32.98768 | -97.05427 | 2056 ft | 130 kts | 181° |
| 2026-05-04 21:25 | 32.97890 | -97.05432 | 1897 ft | 124 kts | 183° |
| 2026-05-04 21:25 | 32.97025 | -97.05436 | 1734 ft | 125 kts | 181° |
| 2026-05-04 21:26 | 32.96156 | -97.05441 | 1581 ft | 123 kts | 184° |
| 2026-05-04 21:26 | 32.95282 | -97.05447 | 1392 ft | 127 kts | 181° |
| 2026-05-04 21:26 | 32.94422 | -97.05450 | 1226 ft | 126 kts | 180° |
| 2026-05-04 21:26 | 32.93558 | -97.05455 | 1056 ft | 123 kts | 180° |
| 2026-05-04 21:27 | 32.92707 | -97.05460 | 852 ft | 122 kts | 180° |
| 2026-05-04 21:27 | 32.91848 | -97.05466 | 724 ft | 126 kts | 178° |
| 2026-05-04 21:27 | 32.90995 | -97.05470 | 625 ft | 115 kts | 178° |
| 2026-05-04 21:27 | 32.90299 | -97.05470 | 608 ft | 78 kts | 180° |
| 2026-05-04 21:28 | 32.89964 | -97.05417 | 611 ft | 35 kts | 152° |
| 2026-05-04 21:28 | 32.89795 | -97.05300 | 602 ft | 22 kts | 145° |
| 2026-05-04 21:28 | 32.89760 | -97.05127 | 602 ft | 23 kts | 92° |
| 2026-05-04 21:28 | 32.89757 | -97.04947 | 602 ft | 19 kts | 91° |
| 2026-05-04 21:29 | 32.89757 | -97.04787 | 598 ft | 14 kts | 82° |
| 2026-05-04 21:29 | 32.89843 | -97.04764 | 597 ft | 14 kts | 1° |
| 2026-05-04 21:29 | 32.89948 | -97.04764 | 599 ft | 16 kts | 0° |
| 2026-05-04 21:29 | 32.90063 | -97.04763 | 598 ft | 18 kts | 0° |
| 2026-05-04 21:30 | 32.90199 | -97.04763 | 597 ft | 21 kts | 0° |
| 2026-05-04 21:30 | 32.90350 | -97.04762 | 597 ft | 22 kts | 0° |
| 2026-05-04 21:30 | 32.90509 | -97.04761 | 598 ft | 24 kts | 0° |
| 2026-05-04 21:30 | 32.90673 | -97.04758 | 597 ft | 23 kts | 1° |
| 2026-05-04 21:31 | 32.90909 | -97.04713 | 601 ft | 14 kts | 77° |
| 2026-05-04 21:31 | 32.90909 | -97.04598 | 598 ft | 15 kts | 91° |
| 2026-05-04 21:31 | 32.90908 | -97.04465 | 600 ft | 16 kts | 90° |
| 2026-05-04 21:32 | 32.90907 | -97.04341 | 607 ft | 14 kts | 90° |
| 2026-05-04 21:32 | 32.90906 | -97.04226 | 610 ft | 13 kts | 90° |
| 2026-05-04 21:32 | 32.90906 | -97.04121 | 610 ft | 12 kts | 90° |
| 2026-05-04 21:32 | 32.90905 | -97.04028 | 610 ft | 11 kts | 92° |
| 2026-05-04 21:33 | 32.90905 | -97.03946 | 609 ft | 9 kts | 88° |
| 2026-05-04 21:33 | 32.90905 | -97.03868 | 609 ft | 11 kts | 90° |
| 2026-05-04 21:33 | 32.90904 | -97.03748 | 600 ft | 18 kts | 90° |
| 2026-05-04 21:33 | 32.90903 | -97.03569 | 587 ft | 23 kts | 91° |
| 2026-05-04 21:34 | 32.90903 | -97.03393 | 586 ft | 16 kts | 90° |
| 2026-05-04 21:34 | 32.90861 | -97.03307 | 586 ft | 12 kts | 172° |
| 2026-05-04 21:34 | 32.90781 | -97.03309 | 586 ft | 12 kts | 181° |
| 2026-05-04 21:34 | 32.90689 | -97.03311 | 585 ft | 15 kts | 179° |
| 2026-05-04 21:35 | 32.90593 | -97.03310 | 585 ft | 13 kts | 180° |
| 2026-05-04 21:35 | 32.90505 | -97.03312 | 585 ft | 14 kts | 181° |
| 2026-05-04 21:35 | 32.90403 | -97.03313 | 585 ft | 14 kts | 180° |
| 2026-05-04 21:35 | 32.90314 | -97.03314 | 585 ft | 12 kts | 180° |
| 2026-05-04 21:36 | 32.90238 | -97.03314 | 585 ft | 11 kts | 180° |
| 2026-05-04 21:36 | 32.90158 | -97.03314 | 585 ft | 11 kts | 185° |
| 2026-05-04 21:36 | 32.90130 | -97.03378 | 587 ft | 10 kts | 268° |
| 2026-05-04 21:36 | 32.90131 | -97.03462 | 587 ft | 10 kts | 271° |
| 2026-05-04 21:37 | 32.90132 | -97.03537 | 587 ft | 8 kts | 271° |
| 2026-05-04 21:37 | 32.90134 | -97.03616 | 587 ft | 10 kts | 269° |
| 2026-05-04 21:37 | 32.90141 | -97.03683 | 587 ft | 6 kts | 316° |
| 2026-05-04 21:37 | 32.90170 | -97.03692 | 587 ft | 2 kts | 349° |
| 2026-05-04 21:38 | 32.90176 | -97.03693 | 587 ft | 0 kts | 349° |
| 2026-05-04 21:38 | 32.90177 | -97.03693 | 587 ft | 0 kts | 349° |